Time;durP1;ratioP1;P1;durP2;ratioP2;P2;SDS_P1;SDS_P2;PMS_P1;PMS_P2;Temp;Humidity;BMP_temperature;BMP_pressure;BME280_temperature;BME280_humidity;BME280_pressure;Samples;Min_cycle;Max_cycle;Signal;HPM_P1;HPM_P2
2021/01/31 00:00:25;;;;;;;8.00;6.20;;;1.90;99.90;;;;;;4899953;29;20230;-79
2021/01/31 00:02:51;;;;;;;6.10;5.30;;;1.90;99.90;;;;;;4915216;29;20362;-79
2021/01/31 00:05:18;;;;;;;5.45;5.03;;;1.90;99.90;;;;;;4918441;29;20205;-79
2021/01/31 00:07:44;;;;;;;6.07;4.97;;;1.90;99.90;;;;;;4917511;29;20312;-79
2021/01/31 00:10:12;;;;;;;6.20;5.57;;;1.90;99.90;;;;;;4913266;29;20533;-79
2021/01/31 00:12:38;;;;;;;7.32;5.40;;;1.90;99.90;;;;;;4915664;29;20209;-79
2021/01/31 00:15:07;;;;;;;8.60;5.40;;;1.90;99.90;;;;;;4906140;29;20209;-81
2021/01/31 00:17:33;;;;;;;8.77;5.20;;;1.90;99.90;;;;;;4899049;29;20469;-81
2021/01/31 00:19:58;;;;;;;8.50;5.93;;;1.90;99.90;;;;;;4902749;29;20659;-79
2021/01/31 00:22:24;;;;;;;7.13;6.07;;;1.90;99.90;;;;;;4916129;29;20256;-79
2021/01/31 00:24:53;;;;;;;8.40;6.23;;;1.80;99.90;;;;;;4934652;23;20225;-79
2021/01/31 00:27:21;;;;;;;10.35;4.85;;;1.80;99.90;;;;;;4902020;29;20201;-79
2021/01/31 00:29:47;;;;;;;6.47;5.43;;;1.80;99.90;;;;;;4919056;29;20205;-79
2021/01/31 00:32:12;;;;;;;6.53;5.83;;;1.90;99.90;;;;;;4901343;29;20212;-79
2021/01/31 00:45:01;;;;;;;6.22;5.60;;;1.90;99.90;;;;;;5175249;23;20236;-79
2021/01/31 00:47:27;;;;;;;7.30;5.93;;;1.80;99.90;;;;;;4935620;29;20213;-79
2021/01/31 00:49:52;;;;;;;6.47;5.67;;;1.80;99.90;;;;;;4918813;29;20199;-79
2021/01/31 00:52:22;;;;;;;6.83;4.93;;;1.80;99.90;;;;;;4919582;29;20205;-79
2021/01/31 00:54:48;;;;;;;6.70;5.95;;;1.80;99.90;;;;;;4921957;29;20215;-79
2021/01/31 00:57:14;;;;;;;6.97;6.00;;;1.80;99.90;;;;;;4915975;29;20193;-81
2021/01/31 00:59:40;;;;;;;7.13;5.75;;;1.80;99.90;;;;;;4917486;29;20172;-81
2021/01/31 01:02:08;;;;;;;6.90;5.50;;;1.80;99.90;;;;;;4916879;29;20205;-80
2021/01/31 01:04:36;;;;;;;6.00;4.78;;;1.80;99.90;;;;;;4916840;29;20687;-79
2021/01/31 01:07:02;;;;;;;6.88;5.10;;;1.80;99.90;;;;;;4915597;29;20219;-80
2021/01/31 01:09:27;;;;;;;9.00;6.00;;;1.70;99.90;;;;;;4917378;29;20170;-81
2021/01/31 01:11:53;;;;;;;11.53;6.70;;;1.70;99.90;;;;;;4913953;29;20849;-81
2021/01/31 01:14:34;;;;;;;9.00;5.53;;;1.70;99.90;;;;;;4897756;29;20237;-81
2021/01/31 01:17:01;;;;;;;6.40;5.80;;;1.60;99.90;;;;;;4909046;29;20205;-79
2021/01/31 01:19:28;;;;;;;8.65;6.05;;;1.70;99.90;;;;;;4917644;29;20245;-79
2021/01/31 01:21:55;;;;;;;8.10;7.00;;;1.60;99.90;;;;;;4915416;29;20208;-81
2021/01/31 01:24:20;;;;;;;8.32;6.45;;;1.60;99.90;;;;;;4916935;29;20345;-81
2021/01/31 01:26:49;;;;;;;6.63;5.93;;;1.60;99.90;;;;;;4917820;29;20237;-79
2021/01/31 01:29:15;;;;;;;10.80;6.65;;;1.60;99.90;;;;;;4903530;29;20221;-80
2021/01/31 01:31:41;;;;;;;9.60;7.43;;;1.60;99.90;;;;;;4896676;29;20206;-81
2021/01/31 01:34:06;;;;;;;16.30;9.30;;;1.70;99.90;;;;;;4901578;29;20220;-79
2021/01/31 01:36:32;;;;;;;16.10;9.13;;;1.70;99.90;;;;;;4908449;29;20216;-79
2021/01/31 01:38:58;;;;;;;10.77;7.72;;;1.60;99.90;;;;;;4898606;29;20568;-79
2021/01/31 01:41:24;;;;;;;6.90;4.63;;;1.70;99.90;;;;;;4910544;29;20220;-79
2021/01/31 01:43:54;;;;;;;8.57;6.30;;;1.70;99.90;;;;;;4896455;29;20530;-80
2021/01/31 01:46:19;;;;;;;6.63;4.95;;;1.70;99.90;;;;;;4903575;29;20239;-81
2021/01/31 01:49:00;;;;;;;7.60;6.33;;;1.70;99.90;;;;;;4916133;29;20228;-80
2021/01/31 01:51:39;;;;;;;7.20;4.95;;;1.70;99.90;;;;;;4916748;29;20204;-81
2021/01/31 01:54:08;;;;;;;6.80;5.00;;;1.60;99.90;;;;;;4896282;29;20237;-80
2021/01/31 01:56:49;;;;;;;5.57;4.82;;;1.60;99.90;;;;;;4904459;29;20672;-79
2021/01/31 01:59:15;;;;;;;7.82;6.03;;;1.60;99.90;;;;;;4904036;29;20225;-79
2021/01/31 02:01:48;;;;;;;7.30;5.60;;;1.50;99.90;;;;;;4898766;29;20621;-79
2021/01/31 02:04:14;;;;;;;5.20;4.70;;;1.50;99.90;;;;;;4914767;29;20217;-78
2021/01/31 02:06:40;;;;;;;6.97;4.90;;;1.50;99.90;;;;;;4907379;29;20209;-79
2021/01/31 02:09:07;;;;;;;4.70;4.30;;;1.50;99.90;;;;;;4905849;29;20292;-78
2021/01/31 02:11:33;;;;;;;6.93;5.55;;;1.50;99.90;;;;;;4898087;29;20237;-78
2021/01/31 02:14:02;;;;;;;6.53;4.87;;;1.50;99.90;;;;;;4899451;29;20561;-78
2021/01/31 02:16:56;;;;;;;7.57;4.88;;;1.40;99.90;;;;;;4908655;29;20422;-78
2021/01/31 02:19:59;;;;;;;4.82;3.55;;;1.40;99.90;;;;;;4912985;29;20556;-78
2021/01/31 02:22:24;;;;;;;6.00;4.60;;;1.40;99.90;;;;;;4899221;29;20217;-79
2021/01/31 02:25:08;;;;;;;6.20;4.60;;;1.30;99.90;;;;;;4900639;29;20194;-78
2021/01/31 02:27:36;;;;;;;6.30;5.50;;;1.30;99.90;;;;;;4907140;29;20213;-78
2021/01/31 02:30:14;;;;;;;6.45;4.93;;;1.30;99.90;;;;;;4912430;29;20237;-78
2021/01/31 02:33:07;;;;;;;9.57;5.13;;;1.30;99.90;;;;;;4910666;29;20653;-78
2021/01/31 02:35:36;;;;;;;6.40;4.72;;;1.30;99.90;;;;;;4919252;29;20216;-79
2021/01/31 02:38:14;;;;;;;5.63;5.10;;;1.30;99.90;;;;;;4903680;29;20213;-79
2021/01/31 02:40:51;;;;;;;5.50;4.53;;;1.40;99.90;;;;;;4919009;29;20193;-79
2021/01/31 02:43:26;;;;;;;6.70;5.15;;;1.40;99.90;;;;;;4917114;29;20216;-79
2021/01/31 02:46:09;;;;;;;6.70;5.32;;;1.40;99.90;;;;;;4908525;29;20308;-77
2021/01/31 02:48:46;;;;;;;8.35;5.90;;;1.30;99.90;;;;;;4900252;29;20277;-78
2021/01/31 02:51:30;;;;;;;5.90;4.95;;;1.30;99.90;;;;;;4899469;29;20190;-78
2021/01/31 02:54:08;;;;;;;6.65;5.25;;;1.30;99.90;;;;;;4915963;29;20763;-78
2021/01/31 02:56:48;;;;;;;7.95;5.78;;;1.20;99.90;;;;;;4909052;29;20204;-77
2021/01/31 02:59:21;;;;;;;10.10;6.20;;;1.20;99.90;;;;;;4911969;29;20217;-77
2021/01/31 03:01:52;;;;;;;7.70;5.50;;;1.20;99.90;;;;;;4909921;29;20218;-77
2021/01/31 03:04:42;;;;;;;5.90;5.22;;;1.20;99.90;;;;;;4904827;29;20220;-77
2021/01/31 03:07:20;;;;;;;9.45;6.88;;;1.20;99.90;;;;;;4900661;29;20201;-77
2021/01/31 03:10:00;;;;;;;6.90;5.55;;;1.20;99.90;;;;;;4906025;29;20166;-77
2021/01/31 03:12:39;;;;;;;5.55;4.60;;;1.20;99.90;;;;;;4917394;29;20236;-77
2021/01/31 03:15:09;;;;;;;8.27;5.47;;;1.20;99.90;;;;;;4902117;29;20231;-77
2021/01/31 03:17:52;;;;;;;9.63;6.53;;;1.10;99.90;;;;;;4911059;29;20221;-78
2021/01/31 03:20:29;;;;;;;8.85;6.05;;;1.10;99.90;;;;;;4901940;29;20178;-77
2021/01/31 03:23:22;;;;;;;9.35;7.22;;;1.10;99.90;;;;;;4903056;29;20233;-76
2021/01/31 03:25:55;;;;;;;7.78;5.30;;;1.00;99.90;;;;;;4906901;29;20189;-77
2021/01/31 03:28:21;;;;;;;9.13;6.55;;;1.00;99.90;;;;;;4914410;29;21829;-78
2021/01/31 03:30:47;;;;;;;6.70;5.57;;;1.00;99.90;;;;;;4909734;29;20252;-77
2021/01/31 03:33:49;;;;;;;8.93;5.68;;;1.10;99.90;;;;;;4902926;29;20225;-76
2021/01/31 03:36:15;;;;;;;7.95;6.20;;;1.10;99.90;;;;;;4902124;29;20216;-76
2021/01/31 03:38:45;;;;;;;7.53;6.63;;;1.10;99.90;;;;;;4911507;29;20222;-77
2021/01/31 03:41:15;;;;;;;8.30;5.80;;;1.00;99.90;;;;;;4898027;29;20569;-77
2021/01/31 03:43:41;;;;;;;9.73;6.80;;;1.00;99.90;;;;;;4915323;29;20264;-77
2021/01/31 03:46:39;;;;;;;7.32;6.35;;;1.00;99.90;;;;;;4916159;29;20221;-77
2021/01/31 03:49:07;;;;;;;8.00;6.25;;;1.00;99.90;;;;;;4899406;29;20304;-76
2021/01/31 03:51:35;;;;;;;11.55;6.82;;;0.90;99.90;;;;;;4903486;29;20201;-76
2021/01/31 03:54:03;;;;;;;10.27;6.68;;;0.90;99.90;;;;;;4916678;29;20224;-77
2021/01/31 03:56:33;;;;;;;9.98;6.65;;;0.90;99.90;;;;;;4904181;29;20210;-76
2021/01/31 03:59:01;;;;;;;9.05;7.55;;;0.90;99.90;;;;;;4895646;29;20264;-77
2021/01/31 04:01:28;;;;;;;8.95;6.70;;;0.90;99.90;;;;;;4907358;29;20240;-77
2021/01/31 04:04:11;;;;;;;9.23;7.00;;;0.90;99.90;;;;;;4916169;29;20283;-77
2021/01/31 04:06:37;;;;;;;10.60;7.20;;;0.90;99.90;;;;;;4907048;29;20186;-76
2021/01/31 04:09:05;;;;;;;9.10;7.13;;;0.90;99.90;;;;;;4905093;29;20265;-77
2021/01/31 04:11:40;;;;;;;10.85;6.78;;;0.90;99.90;;;;;;4913885;29;20590;-77
2021/01/31 04:14:18;;;;;;;11.95;7.80;;;0.80;99.90;;;;;;4901357;29;20229;-76
2021/01/31 04:16:47;;;;;;;9.20;6.72;;;0.80;99.90;;;;;;4907042;29;20201;-77
2021/01/31 04:19:14;;;;;;;9.05;6.68;;;0.80;99.90;;;;;;4904968;29;20229;-77
2021/01/31 04:21:40;;;;;;;8.80;7.05;;;0.80;99.90;;;;;;4908933;29;20205;-77
2021/01/31 04:24:06;;;;;;;11.70;8.47;;;0.80;99.90;;;;;;4895833;29;20213;-77
2021/01/31 04:26:33;;;;;;;11.55;7.22;;;0.80;99.90;;;;;;4902188;29;20276;-76
2021/01/31 04:28:58;;;;;;;10.23;7.90;;;0.70;99.90;;;;;;4912719;29;20312;-76
2021/01/31 04:31:28;;;;;;;10.90;7.40;;;0.70;99.90;;;;;;4901353;29;20225;-77
2021/01/31 04:33:54;;;;;;;10.20;7.28;;;0.70;99.90;;;;;;4903669;29;20268;-77
2021/01/31 04:36:24;;;;;;;12.10;6.72;;;0.70;99.90;;;;;;4899155;29;20268;-77
2021/01/31 04:38:50;;;;;;;12.30;7.75;;;0.70;99.90;;;;;;4901469;29;20250;-77
2021/01/31 04:41:16;;;;;;;11.98;8.20;;;0.70;99.90;;;;;;4908372;29;20264;-76
2021/01/31 04:43:42;;;;;;;11.47;8.30;;;0.60;99.90;;;;;;4906039;29;20249;-75
2021/01/31 04:46:15;;;;;;;11.20;8.30;;;0.60;99.90;;;;;;4909459;29;20213;-76
2021/01/31 04:49:15;;;;;;;10.35;6.90;;;0.60;99.90;;;;;;4902209;29;20268;-76
2021/01/31 04:51:59;;;;;;;10.63;7.13;;;0.60;99.90;;;;;;4913498;29;20197;-77
2021/01/31 04:54:24;;;;;;;12.10;7.70;;;0.60;99.90;;;;;;4914176;29;20308;-78
2021/01/31 04:57:02;;;;;;;10.40;7.70;;;0.60;99.90;;;;;;4910324;29;20680;-76
2021/01/31 04:59:32;;;;;;;11.50;8.10;;;0.60;99.90;;;;;;4908520;29;20222;-76
2021/01/31 05:02:16;;;;;;;10.07;7.78;;;0.70;99.90;;;;;;4900841;29;20216;-76
2021/01/31 05:05:16;;;;;;;15.75;9.57;;;0.70;99.90;;;;;;4900102;29;20304;-76
2021/01/31 05:07:52;;;;;;;13.00;8.25;;;0.60;99.90;;;;;;4876178;29;20722;-76
2021/01/31 05:10:19;;;;;;;11.10;7.95;;;0.60;99.90;;;;;;4916347;29;20219;-76
2021/01/31 05:13:08;;;;;;;15.05;9.18;;;0.60;99.90;;;;;;4906315;29;20209;-76
2021/01/31 05:15:57;;;;;;;13.20;9.02;;;0.60;99.90;;;;;;4902491;29;20672;-77
2021/01/31 05:18:23;;;;;;;12.60;8.40;;;0.60;99.90;;;;;;4897770;29;20243;-77
2021/01/31 05:20:54;;;;;;;11.82;8.65;;;0.60;99.90;;;;;;4914428;29;20206;-77
2021/01/31 05:23:20;;;;;;;12.40;9.98;;;0.60;99.90;;;;;;4913904;29;20662;-77
2021/01/31 05:25:46;;;;;;;12.93;8.17;;;0.60;99.90;;;;;;4911699;29;20282;-76
2021/01/31 05:28:11;;;;;;;13.93;9.20;;;0.60;99.90;;;;;;4916583;29;20250;-76
2021/01/31 05:30:41;;;;;;;15.33;9.47;;;0.60;99.90;;;;;;4901031;29;20201;-76
2021/01/31 05:33:17;;;;;;;16.50;10.70;;;0.60;99.90;;;;;;4904890;29;20224;-77
2021/01/31 05:36:13;;;;;;;16.65;10.23;;;0.60;99.90;;;;;;4895504;29;20193;-76
2021/01/31 05:38:43;;;;;;;12.77;9.38;;;0.60;99.90;;;;;;4908037;29;20201;-77
2021/01/31 05:41:48;;;;;;;16.10;11.27;;;0.60;99.90;;;;;;4902345;29;20265;-77
2021/01/31 05:44:17;;;;;;;17.70;11.07;;;0.60;99.90;;;;;;4911878;29;20618;-77
2021/01/31 05:46:49;;;;;;;17.80;11.60;;;0.60;99.90;;;;;;4900234;29;20192;-77
2021/01/31 05:49:33;;;;;;;16.55;10.52;;;0.50;99.90;;;;;;4910325;29;20222;-76
2021/01/31 05:51:59;;;;;;;14.43;9.65;;;0.50;99.90;;;;;;4914047;29;20220;-76
2021/01/31 05:54:34;;;;;;;17.95;10.13;;;0.50;99.90;;;;;;4901165;29;20217;-76
2021/01/31 05:57:00;;;;;;;14.63;10.05;;;0.50;99.90;;;;;;4909494;29;20223;-76
2021/01/31 05:59:38;;;;;;;13.50;9.30;;;0.50;99.90;;;;;;4917146;29;20292;-76
2021/01/31 06:02:04;;;;;;;15.43;9.77;;;0.50;99.90;;;;;;4903831;29;20206;-76
2021/01/31 06:04:30;;;;;;;16.70;10.20;;;0.50;99.90;;;;;;4909911;29;20672;-76
2021/01/31 06:07:11;;;;;;;15.17;9.13;;;0.50;99.90;;;;;;4912174;29;20239;-76
2021/01/31 06:09:51;;;;;;;17.60;9.38;;;0.50;99.90;;;;;;4901731;29;20233;-76
2021/01/31 06:12:19;;;;;;;15.18;10.38;;;0.40;99.90;;;;;;4898376;29;20654;-76
2021/01/31 06:15:07;;;;;;;17.23;10.93;;;0.40;99.90;;;;;;4907855;29;20275;-76
2021/01/31 06:17:34;;;;;;;14.60;9.73;;;0.40;99.90;;;;;;4918601;29;20217;-76
2021/01/31 06:20:06;;;;;;;14.15;9.80;;;0.40;99.90;;;;;;4917845;29;20555;-77
2021/01/31 06:22:47;;;;;;;15.27;9.10;;;0.40;99.90;;;;;;4916938;29;20308;-77
2021/01/31 06:25:25;;;;;;;16.65;11.32;;;0.30;99.90;;;;;;4909540;29;20194;-76
2021/01/31 06:27:52;;;;;;;15.85;11.27;;;0.40;99.90;;;;;;4903167;29;20209;-76
2021/01/31 06:30:31;;;;;;;16.30;10.57;;;0.30;99.90;;;;;;4918469;29;20205;-76
2021/01/31 06:32:57;;;;;;;19.05;11.73;;;0.30;99.90;;;;;;4920249;29;20224;-76
2021/01/31 06:35:25;;;;;;;16.73;11.13;;;0.30;99.90;;;;;;4922859;29;20198;-76
2021/01/31 06:38:22;;;;;;;18.25;11.75;;;0.40;99.90;;;;;;4905572;29;20214;-76
2021/01/31 06:41:10;;;;;;;17.25;11.98;;;0.30;99.90;;;;;;4913255;29;20208;-76
2021/01/31 06:43:52;;;;;;;17.70;12.00;;;0.20;99.90;;;;;;4916004;29;20237;-77
2021/01/31 06:46:42;;;;;;;17.52;11.60;;;0.20;99.90;;;;;;4913570;29;20202;-76
2021/01/31 06:49:38;;;;;;;17.88;11.52;;;0.20;99.90;;;;;;4907905;29;20218;-76
2021/01/31 06:52:33;;;;;;;15.60;9.52;;;0.20;99.90;;;;;;4914911;29;20229;-76
2021/01/31 06:55:11;;;;;;;18.95;12.70;;;0.20;99.90;;;;;;4899794;29;20549;-76
2021/01/31 06:57:44;;;;;;;16.00;10.68;;;0.20;99.90;;;;;;4913062;29;20235;-76
2021/01/31 07:00:27;;;;;;;15.35;10.85;;;0.30;99.90;;;;;;4920354;29;20641;-76
2021/01/31 07:03:17;;;;;;;17.75;12.10;;;0.30;99.90;;;;;;4899867;29;20770;-76
2021/01/31 07:05:55;;;;;;;17.85;11.45;;;0.30;99.90;;;;;;4919771;29;20297;-76
2021/01/31 07:08:36;;;;;;;19.00;11.68;;;0.30;99.90;;;;;;4913708;29;20228;-76
2021/01/31 07:11:11;;;;;;;14.05;10.18;;;0.30;99.90;;;;;;4919335;29;20684;-77
2021/01/31 07:14:05;;;;;;;17.85;11.93;;;0.30;99.90;;;;;;4909839;29;20216;-77
2021/01/31 07:16:38;;;;;;;18.55;11.88;;;0.20;99.90;;;;;;4907273;29;20201;-76
2021/01/31 07:21:55;;;;;;;17.77;11.15;;;0.20;99.90;;;;;;4929965;23;20233;-77
2021/01/31 07:24:44;;;;;;;17.55;11.50;;;0.20;99.90;;;;;;4926916;23;20237;-77
2021/01/31 07:27:29;;;;;;;16.20;11.73;;;0.20;99.90;;;;;;4893725;29;20234;-78
2021/01/31 07:30:08;;;;;;;20.13;11.75;;;0.20;99.90;;;;;;4895585;29;20197;-77
2021/01/31 07:32:49;;;;;;;17.33;11.48;;;0.20;99.90;;;;;;4898945;29;20214;-78
2021/01/31 07:35:20;;;;;;;17.65;11.85;;;0.20;99.90;;;;;;4901076;29;20194;-78
2021/01/31 07:37:51;;;;;;;20.42;12.25;;;0.20;99.90;;;;;;4899703;29;20228;-78
2021/01/31 07:40:22;;;;;;;20.38;11.73;;;0.20;99.90;;;;;;4901133;29;20174;-78
2021/01/31 07:42:53;;;;;;;18.67;11.70;;;0.20;99.90;;;;;;4901965;29;20229;-78
2021/01/31 07:45:24;;;;;;;13.52;10.02;;;0.20;99.90;;;;;;4903903;29;20217;-77
2021/01/31 07:48:10;;;;;;;17.00;10.93;;;0.20;99.90;;;;;;4900598;29;20701;-78
2021/01/31 07:50:39;;;;;;;18.27;11.48;;;0.20;99.90;;;;;;4917634;23;20229;-78
2021/01/31 07:53:07;;;;;;;12.48;9.10;;;0.20;99.90;;;;;;4907433;29;20224;-78
2021/01/31 07:55:42;;;;;;;18.58;11.88;;;0.30;99.90;;;;;;4897234;29;20666;-77
2021/01/31 07:58:19;;;;;;;18.27;12.98;;;0.30;99.90;;;;;;4903951;29;20221;-78
2021/01/31 08:00:48;;;;;;;17.33;11.50;;;0.30;99.90;;;;;;4899600;29;20197;-78
2021/01/31 08:03:19;;;;;;;18.00;11.40;;;0.30;99.90;;;;;;4895757;29;20229;-77
2021/01/31 08:05:56;;;;;;;15.30;10.38;;;0.30;99.90;;;;;;4895944;29;20213;-78
2021/01/31 08:08:42;;;;;;;14.85;10.02;;;0.30;99.90;;;;;;4899381;29;20221;-77
2021/01/31 08:11:17;;;;;;;17.15;12.25;;;0.30;99.90;;;;;;4916907;23;20226;-76
2021/01/31 08:13:48;;;;;;;16.75;9.82;;;0.30;99.90;;;;;;4880195;29;20210;-77
2021/01/31 08:16:59;;;;;;;19.92;12.02;;;0.20;99.90;;;;;;4893400;29;20202;-77
2021/01/31 08:19:30;;;;;;;17.98;12.57;;;0.20;99.90;;;;;;4861749;29;20212;-77
2021/01/31 08:22:04;;;;;;;20.02;12.50;;;0.30;99.90;;;;;;4878805;29;20222;-77
2021/01/31 08:24:59;;;;;;;14.10;10.43;;;0.40;99.90;;;;;;4892081;29;20206;-77
2021/01/31 08:27:43;;;;;;;18.85;12.73;;;0.30;99.90;;;;;;4870422;29;20251;-77
2021/01/31 08:30:17;;;;;;;17.50;11.70;;;0.30;99.90;;;;;;4877480;29;20205;-78
2021/01/31 08:32:58;;;;;;;19.05;11.68;;;0.30;99.90;;;;;;4876639;29;20318;-78
2021/01/31 08:35:53;;;;;;;15.57;11.57;;;0.40;99.90;;;;;;4880530;29;20193;-78
2021/01/31 08:38:25;;;;;;;17.63;10.57;;;0.40;99.90;;;;;;4879526;29;20286;-78
2021/01/31 08:41:02;;;;;;;17.02;11.23;;;0.50;99.90;;;;;;4877035;29;20190;-77
2021/01/31 08:43:35;;;;;;;17.70;11.40;;;0.40;99.90;;;;;;4866094;29;20244;-77
2021/01/31 08:46:09;;;;;;;14.40;10.45;;;0.40;99.90;;;;;;4863239;29;20205;-77
2021/01/31 08:48:36;;;;;;;17.33;11.45;;;0.50;99.90;;;;;;4867398;29;20217;-77
2021/01/31 08:51:15;;;;;;;22.90;12.13;;;0.50;99.90;;;;;;4886108;29;20198;-76
2021/01/31 08:53:41;;;;;;;20.20;11.13;;;0.40;99.90;;;;;;4875366;29;20230;-77
2021/01/31 08:56:19;;;;;;;20.35;13.52;;;0.50;99.90;;;;;;4877852;29;20235;-77
2021/01/31 08:58:45;;;;;;;17.52;11.63;;;0.50;99.90;;;;;;4889820;23;20232;-76
2021/01/31 09:01:10;;;;;;;16.17;10.47;;;0.50;99.90;;;;;;4897519;29;20206;-76
2021/01/31 09:03:42;;;;;;;19.80;11.07;;;0.50;99.90;;;;;;4900763;29;20225;-76
2021/01/31 09:06:08;;;;;;;18.40;10.73;;;0.60;99.90;;;;;;4918840;29;20211;-76
2021/01/31 09:08:44;;;;;;;17.25;11.20;;;0.50;99.90;;;;;;4903193;29;20213;-76
2021/01/31 09:11:13;;;;;;;18.85;11.50;;;0.60;99.90;;;;;;4881780;29;20664;-76
2021/01/31 09:13:39;;;;;;;16.75;11.40;;;0.50;99.90;;;;;;4905038;29;20217;-77
2021/01/31 09:16:25;;;;;;;15.40;10.87;;;0.60;99.90;;;;;;4918293;29;20204;-77
2021/01/31 09:19:03;;;;;;;14.98;10.98;;;0.50;99.90;;;;;;4912009;29;20232;-77
2021/01/31 09:21:35;;;;;;;14.00;10.52;;;0.60;99.90;;;;;;4902286;29;20204;-77
2021/01/31 09:24:04;;;;;;;18.33;10.82;;;0.60;99.90;;;;;;4920049;29;20227;-77
2021/01/31 09:26:43;;;;;;;20.00;11.57;;;0.70;99.90;;;;;;4904151;29;20178;-77
2021/01/31 09:29:24;;;;;;;19.33;11.88;;;0.70;99.90;;;;;;4897130;29;20212;-77
2021/01/31 09:32:24;;;;;;;16.42;11.35;;;0.70;99.90;;;;;;4903034;29;20193;-77
2021/01/31 09:34:52;;;;;;;15.20;9.93;;;0.70;99.90;;;;;;4903540;29;20585;-77
2021/01/31 09:37:27;;;;;;;21.48;11.98;;;0.70;99.90;;;;;;4889525;29;20182;-77
2021/01/31 09:39:56;;;;;;;18.65;10.75;;;0.70;99.90;;;;;;4908536;29;20213;-76
2021/01/31 09:42:23;;;;;;;16.77;11.13;;;0.80;99.90;;;;;;4898388;29;20229;-76
2021/01/31 09:44:55;;;;;;;16.83;10.40;;;0.70;99.90;;;;;;4912070;29;20198;-76
2021/01/31 09:47:22;;;;;;;17.63;12.23;;;0.80;99.90;;;;;;4914920;29;20177;-77
2021/01/31 09:49:54;;;;;;;15.73;10.75;;;0.80;99.90;;;;;;4906891;29;20263;-77
2021/01/31 09:52:19;;;;;;;17.50;12.35;;;0.80;99.90;;;;;;4907531;29;20181;-77
2021/01/31 09:54:45;;;;;;;16.27;10.80;;;0.80;99.90;;;;;;4905761;29;20193;-77
2021/01/31 09:57:22;;;;;;;16.00;11.50;;;0.80;99.90;;;;;;4909001;29;20483;-77
2021/01/31 09:59:59;;;;;;;20.27;12.07;;;0.80;99.90;;;;;;4898952;29;20299;-77
2021/01/31 10:02:28;;;;;;;23.10;12.48;;;0.80;99.90;;;;;;4905111;29;20244;-77
2021/01/31 10:04:58;;;;;;;18.75;11.35;;;0.90;99.90;;;;;;4913871;29;20226;-77
2021/01/31 10:07:50;;;;;;;21.73;12.50;;;0.90;99.90;;;;;;4912609;29;20221;-77
2021/01/31 10:10:36;;;;;;;29.55;14.75;;;0.90;99.90;;;;;;4903609;29;20205;-77
2021/01/31 10:13:20;;;;;;;19.27;11.00;;;0.90;99.90;;;;;;4891092;29;20240;-77
2021/01/31 10:16:01;;;;;;;16.05;11.27;;;1.00;99.90;;;;;;4918446;29;20276;-77
2021/01/31 10:18:35;;;;;;;17.02;11.85;;;1.00;99.90;;;;;;4900061;29;20502;-77
2021/01/31 10:21:19;;;;;;;17.75;10.23;;;0.90;99.90;;;;;;4900463;29;20678;-78
2021/01/31 10:24:01;;;;;;;15.77;10.20;;;1.00;99.90;;;;;;4901998;29;20213;-79
2021/01/31 10:26:27;;;;;;;15.75;10.85;;;1.00;99.90;;;;;;4883202;29;20170;-78
2021/01/31 10:28:59;;;;;;;15.60;10.93;;;1.00;99.90;;;;;;4915223;29;20300;-79
2021/01/31 10:31:33;;;;;;;16.67;10.88;;;1.10;99.90;;;;;;4919004;29;20174;-78
2021/01/31 10:34:01;;;;;;;14.65;10.93;;;1.10;99.90;;;;;;4902368;29;20305;-78
2021/01/31 10:36:33;;;;;;;17.88;11.43;;;1.10;99.90;;;;;;4915314;29;20182;-78
2021/01/31 10:39:13;;;;;;;17.70;11.70;;;1.10;99.90;;;;;;4900300;29;20228;-79
2021/01/31 10:41:43;;;;;;;18.10;11.88;;;1.10;99.90;;;;;;4883872;29;20194;-79
2021/01/31 10:44:12;;;;;;;18.85;13.25;;;1.10;99.90;;;;;;4882387;29;20214;-79
2021/01/31 10:46:40;;;;;;;16.48;12.43;;;1.10;99.90;;;;;;4899776;29;20539;-80
2021/01/31 10:49:07;;;;;;;16.92;11.13;;;1.20;99.90;;;;;;4899066;29;20210;-80
2021/01/31 10:51:34;;;;;;;19.10;13.10;;;1.20;99.90;;;;;;4900522;29;20182;-80
2021/01/31 10:54:02;;;;;;;22.05;12.77;;;1.20;99.90;;;;;;4901192;29;20218;-79
2021/01/31 10:56:28;;;;;;;17.42;12.77;;;1.20;99.90;;;;;;4912760;29;20174;-79
2021/01/31 10:58:54;;;;;;;15.80;11.93;;;1.20;99.90;;;;;;4897120;29;20221;-79
2021/01/31 11:01:20;;;;;;;17.38;11.70;;;1.20;99.90;;;;;;4901012;29;20460;-81
2021/01/31 11:03:48;;;;;;;16.67;12.07;;;1.20;99.90;;;;;;4900093;29;20205;-79
2021/01/31 11:06:14;;;;;;;19.90;11.98;;;1.20;99.90;;;;;;4885530;29;20205;-79
2021/01/31 11:09:06;;;;;;;19.20;11.30;;;1.20;99.90;;;;;;4909109;29;20212;-80
2021/01/31 11:11:32;;;;;;;19.17;11.88;;;1.20;99.90;;;;;;4899965;29;20159;-80
2021/01/31 11:13:57;;;;;;;18.47;11.20;;;1.20;99.90;;;;;;4900544;29;20797;-79
2021/01/31 11:16:23;;;;;;;14.10;9.60;;;1.20;99.90;;;;;;4900154;29;20205;-80
2021/01/31 11:18:49;;;;;;;15.40;10.37;;;1.20;99.90;;;;;;4897720;29;20218;-78
2021/01/31 11:21:19;;;;;;;17.80;11.02;;;1.20;99.90;;;;;;4883026;29;20213;-80
2021/01/31 11:23:45;;;;;;;15.73;11.27;;;1.20;99.90;;;;;;4899212;29;20221;-80
2021/01/31 11:26:11;;;;;;;17.73;13.53;;;1.30;99.90;;;;;;4914091;29;20205;-79
2021/01/31 11:28:36;;;;;;;18.20;13.37;;;1.30;99.90;;;;;;4896297;29;20208;-79
2021/01/31 11:31:02;;;;;;;18.80;12.53;;;1.30;99.90;;;;;;4898145;29;20208;-79
2021/01/31 11:33:28;;;;;;;19.10;12.37;;;1.40;99.90;;;;;;4919297;29;20213;-81
2021/01/31 11:35:54;;;;;;;20.73;12.93;;;1.30;99.90;;;;;;4901564;29;20524;-81
2021/01/31 11:38:19;;;;;;;19.77;13.25;;;1.40;99.90;;;;;;4918330;29;20640;-81
2021/01/31 11:40:45;;;;;;;18.30;13.20;;;1.30;99.90;;;;;;4918199;29;20213;-79
2021/01/31 11:43:11;;;;;;;19.70;12.47;;;1.30;99.90;;;;;;4892686;29;20638;-79
2021/01/31 11:45:42;;;;;;;21.63;13.77;;;1.40;99.90;;;;;;4887867;29;20203;-80
2021/01/31 11:48:09;;;;;;;16.58;12.10;;;1.40;99.90;;;;;;4903833;29;20576;-80
2021/01/31 11:50:34;;;;;;;16.42;11.82;;;1.40;99.90;;;;;;4900549;29;20222;-80
2021/01/31 11:53:51;;;;;;;17.83;12.27;;;1.50;99.90;;;;;;4876592;29;20210;-82
2021/01/31 11:56:30;;;;;;;17.63;12.40;;;1.50;99.90;;;;;;4876960;29;20217;-81
2021/01/31 11:59:55;;;;;;;;;;;;;;;;;;;;;
2021/01/31 12:02:22;;;;;;;22.50;13.80;;;1.50;99.90;;;;;;5063404;23;20188;-81
2021/01/31 12:04:48;;;;;;;17.23;12.10;;;1.40;99.90;;;;;;4981092;23;20214;-80
2021/01/31 12:07:44;;;;;;;18.03;12.50;;;1.50;99.90;;;;;;4900115;29;20177;-81
2021/01/31 12:10:14;;;;;;;17.33;13.50;;;1.50;99.90;;;;;;4896942;29;20673;-80
2021/01/31 12:12:39;;;;;;;22.02;12.40;;;1.50;99.90;;;;;;4899844;29;20421;-81
2021/01/31 12:15:07;;;;;;;17.57;12.30;;;1.50;99.90;;;;;;4888349;29;20577;-81
2021/01/31 12:17:33;;;;;;;20.20;14.68;;;1.50;99.90;;;;;;4879003;29;20210;-81
2021/01/31 12:19:59;;;;;;;29.17;18.97;;;1.50;99.90;;;;;;4881956;29;20206;-81
2021/01/31 12:22:25;;;;;;;19.50;13.10;;;1.50;99.90;;;;;;4882035;29;20244;-81
2021/01/31 12:24:51;;;;;;;20.67;12.77;;;1.60;99.90;;;;;;4884977;29;20663;-81
2021/01/31 12:27:21;;;;;;;17.85;11.82;;;1.60;99.90;;;;;;4881507;29;20215;-79
2021/01/31 12:33:26;;;;;;;15.98;11.20;;;1.70;99.90;;;;;;4882411;29;20591;-82
2021/01/31 12:35:55;;;;;;;14.82;9.77;;;1.70;99.90;;;;;;4880852;29;20195;-80
2021/01/31 12:41:48;;;;;;;15.30;8.52;;;1.70;99.90;;;;;;4880848;29;20720;-80
2021/01/31 12:44:38;;;;;;;13.17;8.60;;;1.70;99.90;;;;;;4880185;29;20222;-80
2021/01/31 12:47:04;;;;;;;11.45;7.68;;;1.70;99.90;;;;;;4879499;29;20602;-80
2021/01/31 12:49:50;;;;;;;9.80;8.20;;;1.70;99.90;;;;;;4882653;29;20179;-79
2021/01/31 13:02:52;;;;;;;12.02;9.40;;;1.70;99.90;;;;;;4796431;29;20233;-80
2021/01/31 13:05:31;;;;;;;15.50;10.38;;;1.70;99.90;;;;;;4791002;29;20209;-80
2021/01/31 13:08:01;;;;;;;15.05;10.15;;;1.70;99.90;;;;;;4807845;29;20235;-78
2021/01/31 13:10:36;;;;;;;13.05;8.93;;;1.70;99.90;;;;;;4825743;29;20204;-80
2021/01/31 13:13:02;;;;;;;14.18;9.68;;;1.70;99.90;;;;;;4859002;29;20245;-80
2021/01/31 13:15:27;;;;;;;13.73;8.97;;;1.70;99.90;;;;;;4886568;29;20519;-80
2021/01/31 13:17:59;;;;;;;15.40;10.80;;;1.70;99.90;;;;;;4884036;29;20217;-80
2021/01/31 13:20:58;;;;;;;;;;;;;;;;;;;;;
2021/01/31 13:24:20;;;;;;;18.67;12.27;;;1.80;99.90;;;;;;4885949;29;20258;-81
2021/01/31 13:26:47;;;;;;;15.25;11.13;;;1.80;99.90;;;;;;4880499;29;20201;-79
2021/01/31 13:29:16;;;;;;;15.32;11.48;;;1.80;99.90;;;;;;4884233;29;20214;-81
2021/01/31 13:32:50;;;;;;;15.15;10.20;;;1.80;99.90;;;;;;4882618;29;20783;-79
2021/01/31 13:40:22;;;;;;;17.13;11.80;;;1.80;99.90;;;;;;4916029;29;20221;-78
2021/01/31 13:42:49;;;;;;;15.25;9.95;;;1.90;99.90;;;;;;4888703;29;20217;-79
2021/01/31 13:45:18;;;;;;;15.50;12.23;;;1.90;99.90;;;;;;4888019;29;20198;-79
2021/01/31 13:47:45;;;;;;;18.17;10.32;;;1.90;99.90;;;;;;4887364;29;20294;-77
2021/01/31 13:50:55;;;;;;;15.80;11.95;;;1.90;99.90;;;;;;4878297;29;20170;-80
2021/01/31 13:53:21;;;;;;;14.23;9.52;;;1.90;99.90;;;;;;4854384;29;20225;-78
2021/01/31 13:55:46;;;;;;;15.47;10.83;;;1.80;99.90;;;;;;4899917;29;20194;-76
2021/01/31 13:58:13;;;;;;;14.23;10.53;;;1.90;99.90;;;;;;4885623;29;20262;-78